Time;durP1;ratioP1;P1;durP2;ratioP2;P2;SDS_P1;SDS_P2;PMS_P1;PMS_P2;Temp;Humidity;BMP_temperature;BMP_pressure;BME280_temperature;BME280_humidity;BME280_pressure;Samples;Min_cycle;Max_cycle;Signal;HPM_P1;HPM_P2
2023/10/18 00:01:02;;;;;;;;;;;21.80;43.50;;;;;;5096068;28;20300;-63
2023/10/18 00:03:30;;;;;;;;;;;21.70;43.40;;;;;;5096109;28;19924;-63
2023/10/18 00:05:57;;;;;;;;;;;21.70;43.50;;;;;;5096184;28;19964;-63
2023/10/18 00:08:24;;;;;;;;;;;21.70;43.50;;;;;;5095993;28;19924;-63
2023/10/18 00:10:53;;;;;;;;;;;21.70;43.50;;;;;;5096817;28;19924;-63
2023/10/18 00:13:23;;;;;;;;;;;21.70;43.40;;;;;;5095778;28;20434;-62
2023/10/18 00:15:53;;;;;;;;;;;21.70;43.40;;;;;;5095732;28;20007;-63
2023/10/18 00:18:20;;;;;;;;;;;21.70;43.40;;;;;;5096029;28;19924;-62
2023/10/18 00:20:47;;;;;;;;;;;21.70;43.40;;;;;;5095061;28;19932;-63
2023/10/18 00:23:14;;;;;;;;;;;21.70;43.40;;;;;;5095189;28;20011;-62
2023/10/18 00:25:41;;;;;;;;;;;21.70;43.40;;;;;;5095431;28;19967;-64
2023/10/18 00:28:08;;;;;;;;;;;21.70;43.40;;;;;;5095442;28;20027;-63
2023/10/18 00:30:36;;;;;;;;;;;21.70;43.40;;;;;;5095906;28;19931;-62
2023/10/18 00:33:06;;;;;;;;;;;21.70;43.40;;;;;;5095749;28;19963;-63
2023/10/18 00:35:36;;;;;;;;;;;21.70;43.40;;;;;;5095399;28;20022;-63
2023/10/18 00:38:03;;;;;;;;;;;21.70;43.40;;;;;;5093739;28;20015;-63
2023/10/18 00:40:34;;;;;;;;;;;21.70;43.40;;;;;;5093764;28;20042;-63
2023/10/18 00:45:56;;;;;;;;;;;21.70;43.40;;;;;;5094647;28;19959;-62
2023/10/18 00:48:24;;;;;;;;;;;21.60;43.40;;;;;;5095314;28;20177;-63
2023/10/18 00:50:52;;;;;;;;;;;21.60;43.40;;;;;;5075003;28;19931;-63
2023/10/18 00:53:20;;;;;;;;;;;21.60;43.40;;;;;;5075183;28;19967;-63
2023/10/18 00:55:48;;;;;;;;;;;21.60;43.40;;;;;;5073770;28;19951;-63
2023/10/18 00:58:15;;;;;;;;;;;21.60;43.40;;;;;;5074947;28;19925;-63
2023/10/18 01:00:44;;;;;;;;;;;21.60;43.40;;;;;;5074099;28;19924;-63
2023/10/18 01:03:28;;;;;;;;;;;21.60;43.40;;;;;;5074675;28;19971;-65
2023/10/18 01:06:04;;;;;;;;;;;21.60;43.40;;;;;;5073134;28;19925;-63
2023/10/18 01:08:32;;;;;;;;;;;21.60;43.40;;;;;;5074139;28;19924;-63
2023/10/18 01:11:12;;;;;;;;;;;21.60;43.50;;;;;;5074616;28;19925;-63
2023/10/18 01:13:42;;;;;;;;;;;21.60;43.50;;;;;;5073532;28;20391;-65
2023/10/18 01:16:23;;;;;;;;;;;21.60;43.50;;;;;;5074089;28;19925;-63
2023/10/18 01:18:52;;;;;;;;;;;21.60;43.60;;;;;;5073673;28;20454;-65
2023/10/18 01:21:20;;;;;;;;;;;21.60;43.50;;;;;;5074354;28;19925;-63
2023/10/18 01:23:59;;;;;;;;;;;21.60;43.50;;;;;;5073992;28;19932;-63
2023/10/18 01:26:28;;;;;;;;;;;21.60;43.60;;;;;;5073680;28;19925;-65
2023/10/18 01:28:56;;;;;;;;;;;21.60;43.60;;;;;;5073427;28;19925;-64
2023/10/18 01:31:23;;;;;;;;;;;21.60;43.60;;;;;;5073662;28;19928;-63
2023/10/18 01:33:51;;;;;;;;;;;21.60;43.50;;;;;;5073941;28;19968;-67
2023/10/18 01:36:20;;;;;;;;;;;21.50;43.50;;;;;;5073523;28;20391;-64
2023/10/18 01:38:49;;;;;;;;;;;21.60;43.50;;;;;;5073689;28;19924;-63
2023/10/18 01:41:25;;;;;;;;;;;21.60;43.50;;;;;;5073634;28;19987;-64
2023/10/18 01:43:55;;;;;;;;;;;21.50;43.50;;;;;;5074162;28;19925;-63
2023/10/18 01:46:23;;;;;;;;;;;21.50;43.50;;;;;;5073213;28;19977;-63
2023/10/18 01:48:51;;;;;;;;;;;21.50;43.50;;;;;;5074526;28;19924;-64
2023/10/18 01:51:19;;;;;;;;;;;21.50;43.40;;;;;;5074242;28;19967;-64
2023/10/18 01:53:46;;;;;;;;;;;21.50;43.50;;;;;;5073857;28;19924;-63
2023/10/18 01:56:17;;;;;;;;;;;21.50;43.50;;;;;;5073920;28;20284;-64
2023/10/18 01:58:46;;;;;;;;;;;21.50;43.40;;;;;;5073569;28;19978;-63
2023/10/18 02:01:16;;;;;;;;;;;21.50;43.40;;;;;;5073375;28;19962;-62
2023/10/18 02:03:44;;;;;;;;;;;21.50;43.50;;;;;;5073683;28;20292;-62
2023/10/18 02:06:15;;;;;;;;;;;21.50;43.40;;;;;;5073568;28;19932;-63
2023/10/18 02:08:42;;;;;;;;;;;21.50;43.40;;;;;;5073781;28;20391;-62
2023/10/18 02:11:09;;;;;;;;;;;21.50;43.50;;;;;;5073246;28;19964;-62
2023/10/18 02:13:36;;;;;;;;;;;21.50;43.50;;;;;;5073785;28;20388;-62
2023/10/18 02:16:06;;;;;;;;;;;21.50;43.40;;;;;;5072837;28;19924;-63
2023/10/18 02:18:33;;;;;;;;;;;21.40;43.30;;;;;;5072747;28;20011;-63
2023/10/18 02:21:02;;;;;;;;;;;21.50;43.40;;;;;;5072843;28;19955;-63
2023/10/18 02:23:34;;;;;;;;;;;21.40;43.40;;;;;;5072887;28;19970;-63
2023/10/18 02:26:09;;;;;;;;;;;21.40;43.40;;;;;;5072945;28;19975;-64
2023/10/18 02:28:40;;;;;;;;;;;21.40;43.40;;;;;;5073357;28;19925;-62
2023/10/18 02:31:10;;;;;;;;;;;21.40;43.40;;;;;;5073253;28;20358;-63
2023/10/18 02:33:38;;;;;;;;;;;21.40;43.40;;;;;;5093220;28;19947;-62
2023/10/18 02:36:06;;;;;;;;;;;21.50;43.50;;;;;;5092779;28;20354;-63
2023/10/18 02:38:33;;;;;;;;;;;21.50;43.40;;;;;;5093478;28;19967;-62
2023/10/18 02:41:14;;;;;;;;;;;21.50;43.50;;;;;;5092114;28;20027;-62
2023/10/18 02:43:51;;;;;;;;;;;21.50;43.50;;;;;;5091445;28;19924;-63
2023/10/18 02:46:25;;;;;;;;;;;21.40;43.40;;;;;;5092948;28;20345;-63
2023/10/18 02:48:54;;;;;;;;;;;21.40;43.50;;;;;;5093873;28;20299;-63
2023/10/18 02:51:22;;;;;;;;;;;21.40;43.50;;;;;;5092658;28;19975;-63
2023/10/18 02:53:49;;;;;;;;;;;21.40;43.40;;;;;;5092598;28;19924;-63
2023/10/18 02:56:32;;;;;;;;;;;21.40;43.40;;;;;;5092056;28;20027;-62
2023/10/18 02:59:06;;;;;;;;;;;21.40;43.40;;;;;;5093267;28;20330;-63
2023/10/18 03:01:34;;;;;;;;;;;21.40;43.40;;;;;;5092376;28;19931;-62
2023/10/18 03:04:06;;;;;;;;;;;21.40;43.40;;;;;;5091001;28;19970;-62
2023/10/18 03:06:33;;;;;;;;;;;21.40;43.40;;;;;;5092714;28;19924;-63
2023/10/18 03:09:00;;;;;;;;;;;21.40;43.40;;;;;;5092616;28;20342;-62
2023/10/18 03:11:27;;;;;;;;;;;21.40;43.40;;;;;;5093251;28;20414;-62
2023/10/18 03:13:57;;;;;;;;;;;21.40;43.40;;;;;;5092424;28;19993;-62
2023/10/18 03:16:39;;;;;;;;;;;21.40;43.40;;;;;;5092752;28;19928;-63
2023/10/18 03:19:12;;;;;;;;;;;21.40;43.40;;;;;;5093102;28;20044;-62
2023/10/18 03:21:41;;;;;;;;;;;21.30;43.40;;;;;;5093065;28;20027;-63
2023/10/18 03:24:12;;;;;;;;;;;21.30;43.40;;;;;;5092220;28;19928;-63
2023/10/18 03:26:40;;;;;;;;;;;21.30;43.40;;;;;;5092301;28;19924;-62
2023/10/18 03:29:15;;;;;;;;;;;21.30;43.40;;;;;;5091453;28;20206;-63
2023/10/18 03:31:44;;;;;;;;;;;21.30;43.40;;;;;;5097074;28;19974;-62
2023/10/18 03:34:18;;;;;;;;;;;21.30;43.40;;;;;;5096562;28;19931;-63
2023/10/18 03:36:49;;;;;;;;;;;21.30;43.30;;;;;;5095671;28;20414;-62
2023/10/18 03:39:16;;;;;;;;;;;21.30;43.40;;;;;;5089366;28;19928;-63
2023/10/18 03:41:49;;;;;;;;;;;21.30;43.40;;;;;;5085419;28;19934;-62
2023/10/18 03:44:26;;;;;;;;;;;21.30;43.40;;;;;;5097505;28;20368;-63
2023/10/18 03:47:03;;;;;;;;;;;21.30;43.40;;;;;;5095991;28;19924;-62
2023/10/18 03:49:33;;;;;;;;;;;21.30;43.40;;;;;;5074605;28;19960;-63
2023/10/18 03:52:16;;;;;;;;;;;21.30;43.40;;;;;;5075742;28;19972;-63
2023/10/18 03:54:45;;;;;;;;;;;21.30;43.40;;;;;;5085302;28;20307;-63
2023/10/18 03:57:16;;;;;;;;;;;21.30;43.40;;;;;;5095601;28;19931;-62
2023/10/18 03:59:47;;;;;;;;;;;21.30;43.30;;;;;;5082760;28;19928;-62
2023/10/18 04:02:27;;;;;;;;;;;21.30;43.30;;;;;;5090473;28;20365;-62
2023/10/18 04:04:58;;;;;;;;;;;21.30;43.30;;;;;;5082004;28;19924;-62
2023/10/18 04:07:26;;;;;;;;;;;21.30;43.20;;;;;;5094585;28;19924;-62
2023/10/18 04:09:54;;;;;;;;;;;21.30;43.10;;;;;;5085752;28;19928;-62
2023/10/18 04:12:22;;;;;;;;;;;21.30;43.10;;;;;;5077479;28;19971;-63
2023/10/18 04:14:52;;;;;;;;;;;21.40;43.10;;;;;;5082771;28;19925;-63
2023/10/18 04:17:31;;;;;;;;;;;21.30;43.00;;;;;;5074848;28;19925;-63
2023/10/18 04:20:00;;;;;;;;;;;21.30;42.90;;;;;;5075490;28;19974;-62
2023/10/18 04:22:30;;;;;;;;;;;21.30;42.90;;;;;;5075320;28;20334;-63
2023/10/18 04:24:57;;;;;;;;;;;21.30;42.90;;;;;;5075321;28;19931;-63
2023/10/18 04:27:26;;;;;;;;;;;21.30;42.80;;;;;;5075118;28;20315;-63
2023/10/18 04:29:56;;;;;;;;;;;21.30;42.80;;;;;;5073420;28;19930;-62
2023/10/18 04:32:23;;;;;;;;;;;21.30;42.70;;;;;;5075536;28;19924;-63
2023/10/18 04:34:50;;;;;;;;;;;21.30;42.70;;;;;;5074444;28;19924;-62
2023/10/18 04:37:22;;;;;;;;;;;21.20;42.60;;;;;;5074350;28;20015;-62
2023/10/18 04:39:49;;;;;;;;;;;21.20;42.40;;;;;;5072763;28;19924;-62
2023/10/18 04:42:17;;;;;;;;;;;21.30;42.40;;;;;;5091879;28;19974;-63
2023/10/18 04:44:50;;;;;;;;;;;21.30;42.30;;;;;;5114942;28;19924;-62
2023/10/18 04:47:18;;;;;;;;;;;21.30;42.10;;;;;;5116286;28;19963;-62
2023/10/18 04:50:00;;;;;;;;;;;21.30;42.00;;;;;;5114684;28;20006;-62
2023/10/18 04:52:40;;;;;;;;;;;21.30;41.80;;;;;;5114838;28;19924;-63
2023/10/18 04:55:12;;;;;;;;;;;21.30;41.60;;;;;;5090821;28;20018;-62
2023/10/18 04:57:40;;;;;;;;;;;21.30;41.70;;;;;;5073873;28;19982;-63
2023/10/18 05:00:24;;;;;;;;;;;21.30;41.70;;;;;;5073759;28;19925;-62
2023/10/18 05:02:52;;;;;;;;;;;21.30;41.80;;;;;;5074223;28;20166;-62
2023/10/18 05:05:20;;;;;;;;;;;21.30;41.80;;;;;;5081896;28;19970;-63
2023/10/18 05:07:48;;;;;;;;;;;21.20;41.70;;;;;;5089137;28;19982;-62
2023/10/18 05:10:16;;;;;;;;;;;21.20;41.60;;;;;;5080089;28;19925;-62
2023/10/18 05:12:53;;;;;;;;;;;21.20;41.60;;;;;;5077653;28;19932;-62
2023/10/18 05:15:31;;;;;;;;;;;21.20;41.60;;;;;;5088078;28;20338;-62
2023/10/18 05:18:15;;;;;;;;;;;21.30;41.60;;;;;;5090019;28;20002;-62
2023/10/18 05:20:46;;;;;;;;;;;21.20;41.40;;;;;;5074446;28;19924;-62
2023/10/18 05:23:21;;;;;;;;;;;21.20;41.30;;;;;;5080100;28;19929;-62
2023/10/18 05:25:53;;;;;;;;;;;21.20;41.10;;;;;;5080143;28;19960;-69
2023/10/18 05:28:28;;;;;;;;;;;21.30;41.00;;;;;;5076682;28;19978;-68
2023/10/18 05:41:59;;;;;;;;;;;21.40;41.80;;;;;;5080677;28;20384;-75
2023/10/18 05:44:28;;;;;;;;;;;21.50;41.90;;;;;;5073128;28;19986;-69
2023/10/18 05:46:57;;;;;;;;;;;21.50;41.70;;;;;;5074477;28;20289;-67
2023/10/18 05:49:25;;;;;;;;;;;21.60;41.50;;;;;;5074855;28;20608;-70
2023/10/18 05:52:16;;;;;;;;;;;21.60;41.40;;;;;;5074370;28;19932;-70
2023/10/18 05:54:43;;;;;;;;;;;21.70;41.40;;;;;;5077155;28;19940;-70
2023/10/18 05:57:16;;;;;;;;;;;21.80;41.00;;;;;;5070713;28;20023;-70
2023/10/18 05:59:46;;;;;;;;;;;21.90;40.60;;;;;;5074191;28;19924;-71
2023/10/18 06:02:22;;;;;;;;;;;22.00;40.50;;;;;;5074306;28;20288;-70
2023/10/18 06:04:51;;;;;;;;;;;22.10;40.30;;;;;;5074368;28;19935;-71
2023/10/18 06:07:22;;;;;;;;;;;22.20;40.20;;;;;;5073581;28;19936;-69
2023/10/18 06:09:58;;;;;;;;;;;22.30;40.00;;;;;;5074217;28;19960;-70
2023/10/18 06:12:30;;;;;;;;;;;22.40;39.70;;;;;;5074445;28;19932;-70
2023/10/18 06:14:57;;;;;;;;;;;22.50;39.70;;;;;;5071820;28;19932;-72
2023/10/18 06:20:29;;;;;;;;;;;22.60;39.60;;;;;;5078272;28;19924;-72
2023/10/18 06:23:09;;;;;;;;;;;22.70;39.50;;;;;;5073835;28;19961;-71
2023/10/18 06:25:38;;;;;;;;;;;22.80;39.40;;;;;;5075744;28;20020;-72
2023/10/18 06:28:08;;;;;;;;;;;22.90;39.20;;;;;;5070225;28;19932;-71
2023/10/18 06:30:39;;;;;;;;;;;23.00;39.00;;;;;;5075904;28;19971;-72
2023/10/18 06:33:09;;;;;;;;;;;23.10;39.00;;;;;;5076609;28;20084;-72
2023/10/18 06:35:43;;;;;;;;;;;23.10;38.90;;;;;;5077772;28;19931;-71
2023/10/18 06:38:17;;;;;;;;;;;23.20;38.60;;;;;;5074587;28;19959;-71
2023/10/18 06:41:00;;;;;;;;;;;23.30;38.30;;;;;;5076651;28;19924;-68
2023/10/18 06:43:33;;;;;;;;;;;23.30;38.20;;;;;;5076320;28;19936;-68
2023/10/18 06:46:00;;;;;;;;;;;23.40;38.40;;;;;;5079817;28;19924;-68
2023/10/18 06:48:28;;;;;;;;;;;23.40;38.20;;;;;;5074346;28;19935;-69
2023/10/18 06:50:57;;;;;;;;;;;23.40;38.10;;;;;;5076561;28;20015;-70
2023/10/18 06:53:28;;;;;;;;;;;23.60;38.60;;;;;;5081026;28;19978;-70
2023/10/18 06:55:58;;;;;;;;;;;23.60;38.00;;;;;;5075601;28;19925;-70
2023/10/18 06:58:44;;;;;;;;;;;23.60;37.90;;;;;;5073049;28;19924;-71
2023/10/18 07:01:19;;;;;;;;;;;23.70;37.80;;;;;;5072459;28;19985;-70
2023/10/18 07:03:47;;;;;;;;;;;23.80;37.90;;;;;;5073968;28;20421;-71
2023/10/18 07:06:24;;;;;;;;;;;23.80;37.90;;;;;;5077626;28;19932;-68
2023/10/18 07:08:52;;;;;;;;;;;23.80;37.90;;;;;;5078069;28;20289;-69
2023/10/18 07:11:19;;;;;;;;;;;23.80;37.90;;;;;;5076880;28;19928;-69
2023/10/18 07:14:04;;;;;;;;;;;23.90;37.80;;;;;;5078323;28;19972;-69
2023/10/18 07:16:38;;;;;;;;;;;23.90;37.80;;;;;;5081854;28;19924;-67
2023/10/18 07:19:21;;;;;;;;;;;23.90;37.70;;;;;;5073122;28;19943;-67
2023/10/18 07:21:48;;;;;;;;;;;24.00;37.80;;;;;;5076526;28;19933;-70
2023/10/18 07:24:17;;;;;;;;;;;23.90;37.80;;;;;;5078224;28;19963;-69
2023/10/18 07:26:47;;;;;;;;;;;24.00;37.90;;;;;;5079762;28;19978;-69
2023/10/18 07:29:15;;;;;;;;;;;24.00;37.90;;;;;;5079448;28;19932;-70
2023/10/18 07:31:45;;;;;;;;;;;24.00;38.00;;;;;;5076394;28;19924;-72
2023/10/18 07:34:19;;;;;;;;;;;24.00;37.90;;;;;;5077743;28;19934;-70
2023/10/18 07:36:46;;;;;;;;;;;24.10;37.90;;;;;;5074772;28;19931;-69
2023/10/18 07:39:16;;;;;;;;;;;24.10;37.90;;;;;;5076186;28;20023;-69
2023/10/18 07:41:43;;;;;;;;;;;24.20;37.90;;;;;;5079510;28;20325;-70
2023/10/18 07:44:11;;;;;;;;;;;24.30;37.80;;;;;;5071255;28;19970;-68
2023/10/18 07:46:41;;;;;;;;;;;24.40;37.60;;;;;;5074774;28;19986;-69
2023/10/18 07:49:13;;;;;;;;;;;24.40;37.80;;;;;;5074892;28;19924;-69
2023/10/18 07:51:48;;;;;;;;;;;24.40;37.70;;;;;;5080740;28;20027;-68
2023/10/18 07:54:17;;;;;;;;;;;24.40;37.60;;;;;;5073870;28;19940;-70
2023/10/18 07:56:53;;;;;;;;;;;24.40;37.50;;;;;;5076970;28;19931;-70
2023/10/18 07:59:27;;;;;;;;;;;24.50;37.50;;;;;;5075370;28;19928;-71
2023/10/18 08:02:09;;;;;;;;;;;24.50;37.60;;;;;;5075096;28;20022;-74
2023/10/18 08:04:37;;;;;;;;;;;24.50;37.40;;;;;;5078131;28;20364;-70
2023/10/18 08:07:10;;;;;;;;;;;24.60;37.30;;;;;;5077869;28;19975;-69
2023/10/18 08:09:39;;;;;;;;;;;24.60;37.30;;;;;;5074074;28;19935;-70
2023/10/18 08:14:54;;;;;;;;;;;24.70;37.20;;;;;;5078116;28;20380;-72
2023/10/18 08:23:05;;;;;;;;;;;24.80;37.00;;;;;;5079645;28;19924;-69
2023/10/18 08:25:35;;;;;;;;;;;24.80;37.20;;;;;;5074609;28;19955;-69
2023/10/18 08:28:06;;;;;;;;;;;24.80;36.90;;;;;;5079751;28;20433;-69
2023/10/18 08:33:23;;;;;;;;;;;24.90;36.80;;;;;;5079593;28;19972;-71
2023/10/18 08:35:58;;;;;;;;;;;24.90;36.70;;;;;;5077412;28;19943;-71
2023/10/18 08:38:26;;;;;;;;;;;24.90;36.50;;;;;;5082381;28;19967;-69
2023/10/18 08:41:11;;;;;;;;;;;25.00;36.50;;;;;;5075311;28;20357;-69
2023/10/18 08:43:44;;;;;;;;;;;25.10;36.50;;;;;;5078790;28;19925;-68
2023/10/18 08:46:11;;;;;;;;;;;25.00;36.40;;;;;;5076267;28;19967;-70
2023/10/18 08:48:38;;;;;;;;;;;25.10;36.60;;;;;;5078607;28;19990;-70
2023/10/18 08:51:06;;;;;;;;;;;25.10;36.50;;;;;;5077681;28;20042;-69
2023/10/18 08:53:35;;;;;;;;;;;25.20;36.40;;;;;;5076598;28;20011;-69
2023/10/18 08:56:06;;;;;;;;;;;25.20;36.30;;;;;;5081615;28;19935;-68
2023/10/18 08:58:34;;;;;;;;;;;25.20;36.30;;;;;;5082199;28;19932;-70
2023/10/18 09:01:03;;;;;;;;;;;25.20;36.30;;;;;;5079798;28;20437;-70
2023/10/18 09:03:31;;;;;;;;;;;25.20;36.20;;;;;;5098139;28;19928;-70
2023/10/18 09:06:05;;;;;;;;;;;25.30;36.20;;;;;;5074820;28;20105;-71
2023/10/18 09:08:35;;;;;;;;;;;25.30;36.50;;;;;;5074870;28;19989;-71
2023/10/18 09:16:39;;;;;;;;;;;25.30;36.50;;;;;;5079023;28;19936;-69
2023/10/18 09:19:06;;;;;;;;;;;25.30;36.50;;;;;;5071729;28;20022;-70
2023/10/18 09:21:50;;;;;;;;;;;25.30;36.50;;;;;;5077900;28;19977;-68
2023/10/18 09:24:23;;;;;;;;;;;25.40;36.70;;;;;;5075023;28;19924;-67
2023/10/18 09:26:51;;;;;;;;;;;25.40;36.50;;;;;;5073139;28;19932;-70
2023/10/18 09:29:18;;;;;;;;;;;25.40;36.50;;;;;;5072718;28;20316;-71
2023/10/18 09:32:02;;;;;;;;;;;25.40;36.50;;;;;;5074740;28;19952;-67
2023/10/18 09:34:42;;;;;;;;;;;25.40;36.50;;;;;;5071785;28;20047;-69
2023/10/18 09:37:13;;;;;;;;;;;25.40;36.40;;;;;;5073060;28;20011;-69
2023/10/18 09:39:44;;;;;;;;;;;25.50;36.40;;;;;;5075407;28;19932;-70
2023/10/18 09:42:15;;;;;;;;;;;25.50;36.30;;;;;;5077681;28;19928;-69
2023/10/18 09:44:44;;;;;;;;;;;25.50;36.30;;;;;;5078805;28;20362;-70
2023/10/18 09:47:12;;;;;;;;;;;25.60;36.40;;;;;;5076418;28;19934;-69
2023/10/18 09:49:40;;;;;;;;;;;25.60;36.20;;;;;;5072884;28;19961;-69
2023/10/18 09:52:11;;;;;;;;;;;25.60;36.20;;;;;;5076690;28;19924;-70
2023/10/18 09:54:47;;;;;;;;;;;25.60;36.10;;;;;;5075394;28;19932;-69
2023/10/18 09:57:19;;;;;;;;;;;25.60;36.20;;;;;;5081027;28;20266;-69
2023/10/18 09:59:47;;;;;;;;;;;25.60;36.10;;;;;;5081335;28;20279;-70
2023/10/18 10:02:16;;;;;;;;;;;25.60;36.10;;;;;;5077060;28;19931;-70
2023/10/18 10:04:52;;;;;;;;;;;25.70;36.00;;;;;;5078265;28;19924;-70
2023/10/18 10:10:10;;;;;;;;;;;25.70;36.00;;;;;;5078829;28;19979;-70
2023/10/18 10:12:41;;;;;;;;;;;25.70;36.00;;;;;;5077328;28;19932;-71
2023/10/18 10:15:17;;;;;;;;;;;25.70;36.00;;;;;;5078417;28;19928;-71
2023/10/18 10:17:57;;;;;;;;;;;25.70;35.80;;;;;;5091195;28;19943;-71
2023/10/18 10:20:31;;;;;;;;;;;25.70;35.90;;;;;;5077738;28;20300;-71
2023/10/18 10:23:02;;;;;;;;;;;25.70;35.80;;;;;;5082670;28;19967;-70
2023/10/18 10:25:34;;;;;;;;;;;25.70;35.80;;;;;;5070864;28;20296;-71
2023/10/18 10:29:09;;;;;;;;;;;25.70;35.70;;;;;;5073004;28;20063;-71
2023/10/18 10:31:26;;;;;;;;;;;25.70;36.00;;;;;;5078378;28;19931;-74
2023/10/18 10:34:06;;;;;;;;;;;25.70;35.60;;;;;;5073775;28;19939;-71
2023/10/18 10:36:36;;;;;;;;;;;25.80;35.50;;;;;;5073610;28;20368;-71
2023/10/18 10:39:08;;;;;;;;;;;25.70;35.60;;;;;;5079400;28;20280;-72
2023/10/18 10:41:36;;;;;;;;;;;25.80;35.50;;;;;;5075617;28;19924;-70
2023/10/18 10:44:08;;;;;;;;;;;25.80;35.30;;;;;;5072985;28;20035;-70
2023/10/18 10:46:37;;;;;;;;;;;25.80;35.30;;;;;;5074932;28;19932;-71
2023/10/18 10:49:28;;;;;;;;;;;25.80;35.30;;;;;;5078466;28;19924;-70
2023/10/18 10:51:56;;;;;;;;;;;25.80;35.20;;;;;;5078624;28;19928;-70
2023/10/18 10:54:26;;;;;;;;;;;25.90;35.20;;;;;;5074404;28;19928;-71
2023/10/18 10:56:54;;;;;;;;;;;25.90;35.10;;;;;;5075532;28;20321;-71
2023/10/18 10:59:23;;;;;;;;;;;25.90;35.10;;;;;;5072887;28;20025;-71
2023/10/18 11:01:57;;;;;;;;;;;26.00;35.00;;;;;;5070307;28;20013;-71
2023/10/18 11:04:49;;;;;;;;;;;26.00;34.80;;;;;;5071448;28;20012;-65
2023/10/18 11:07:24;;;;;;;;;;;26.00;34.40;;;;;;5075736;28;19928;-65
2023/10/18 11:09:59;;;;;;;;;;;26.00;34.50;;;;;;5073805;28;20476;-65
2023/10/18 11:12:27;;;;;;;;;;;26.00;34.30;;;;;;5075826;28;19924;-65
2023/10/18 11:14:55;;;;;;;;;;;26.10;34.20;;;;;;5081195;28;19924;-64
2023/10/18 11:17:25;;;;;;;;;;;26.10;34.20;;;;;;5072700;28;19959;-66
2023/10/18 11:19:59;;;;;;;;;;;26.10;34.00;;;;;;5075054;28;19924;-63
2023/10/18 11:22:33;;;;;;;;;;;26.10;33.80;;;;;;5074263;28;20377;-61
2023/10/18 11:25:06;;;;;;;;;;;26.10;33.80;;;;;;5073136;28;20063;-61
2023/10/18 11:27:33;;;;;;;;;;;26.20;33.80;;;;;;5076364;28;19924;-64
2023/10/18 11:32:50;;;;;;;;;;;26.20;33.80;;;;;;5072014;28;19947;-62
2023/10/18 11:35:18;;;;;;;;;;;26.20;33.80;;;;;;5076627;28;19931;-60
2023/10/18 11:37:47;;;;;;;;;;;26.20;33.70;;;;;;5073195;28;19951;-61
2023/10/18 11:40:18;;;;;;;;;;;26.20;33.50;;;;;;5072231;28;19932;-63
2023/10/18 11:42:55;;;;;;;;;;;26.30;33.60;;;;;;5071910;28;20299;-62
2023/10/18 11:45:27;;;;;;;;;;;26.30;33.50;;;;;;5071692;28;20024;-62
2023/10/18 11:47:55;;;;;;;;;;;26.30;33.20;;;;;;5073824;28;19932;-61
2023/10/18 11:50:23;;;;;;;;;;;26.30;33.20;;;;;;5073951;28;20665;-73
2023/10/18 11:52:52;;;;;;;;;;;26.30;32.70;;;;;;5071462;28;20348;-64
2023/10/18 11:55:20;;;;;;;;;;;26.30;32.80;;;;;;5071886;28;19936;-61
2023/10/18 11:57:50;;;;;;;;;;;26.30;32.80;;;;;;5074812;28;19924;-62
2023/10/18 12:00:26;;;;;;;;;;;26.30;32.60;;;;;;5072156;28;19932;-60
2023/10/18 12:02:54;;;;;;;;;;;26.30;32.60;;;;;;5078737;28;20443;-60
2023/10/18 12:05:27;;;;;;;;;;;26.30;32.70;;;;;;5080451;28;20532;-61
2023/10/18 12:08:05;;;;;;;;;;;26.40;32.60;;;;;;5077957;28;19932;-61
2023/10/18 12:10:36;;;;;;;;;;;26.40;32.60;;;;;;5075059;28;20372;-62
2023/10/18 12:13:06;;;;;;;;;;;26.40;32.50;;;;;;5077943;28;19932;-61
2023/10/18 12:15:34;;;;;;;;;;;26.40;32.70;;;;;;5079008;28;19989;-61
2023/10/18 12:18:04;;;;;;;;;;;26.40;32.50;;;;;;5076984;28;20117;-62
2023/10/18 12:20:35;;;;;;;;;;;26.50;32.60;;;;;;5076261;28;19928;-61
2023/10/18 12:23:18;;;;;;;;;;;26.50;32.40;;;;;;5080485;28;19928;-61
2023/10/18 12:25:46;;;;;;;;;;;26.50;32.10;;;;;;5077596;28;19951;-62
2023/10/18 12:28:17;;;;;;;;;;;26.60;32.10;;;;;;5078857;28;19928;-61
2023/10/18 12:30:51;;;;;;;;;;;26.60;32.40;;;;;;5078125;28;20277;-63
2023/10/18 12:33:28;;;;;;;;;;;26.60;33.10;;;;;;5077722;28;19924;-62
2023/10/18 12:35:59;;;;;;;;;;;26.60;32.50;;;;;;5073990;28;19924;-61
2023/10/18 12:38:35;;;;;;;;;;;26.60;32.40;;;;;;5076262;28;19924;-62
2023/10/18 12:41:05;;;;;;;;;;;26.60;32.40;;;;;;5076384;28;20015;-61
2023/10/18 12:43:38;;;;;;;;;;;26.50;32.40;;;;;;5079498;28;19943;-61
2023/10/18 12:46:06;;;;;;;;;;;26.50;32.50;;;;;;5076143;28;19924;-61
2023/10/18 12:48:35;;;;;;;;;;;26.50;32.10;;;;;;5077584;28;20331;-62
2023/10/18 12:51:08;;;;;;;;;;;26.40;32.50;;;;;;5073671;28;19932;-61
2023/10/18 12:53:47;;;;;;;;;;;26.30;32.60;;;;;;5083942;28;20395;-60
2023/10/18 12:56:23;;;;;;;;;;;26.30;32.50;;;;;;5079751;28;19933;-60
2023/10/18 13:01:43;;;;;;;;;;;26.30;32.00;;;;;;5076459;28;20014;-61
2023/10/18 13:04:17;;;;;;;;;;;26.20;31.80;;;;;;5076788;28;19970;-61
2023/10/18 13:06:45;;;;;;;;;;;26.20;31.60;;;;;;5077598;28;19932;-61
2023/10/18 13:09:19;;;;;;;;;;;26.20;31.90;;;;;;5076766;28;19973;-60
2023/10/18 13:12:00;;;;;;;;;;;26.20;32.10;;;;;;5075101;28;19935;-61
2023/10/18 13:14:31;;;;;;;;;;;26.10;31.90;;;;;;5077438;28;19928;-64
2023/10/18 13:17:03;;;;;;;;;;;26.10;32.20;;;;;;5076540;28;19928;-60
2023/10/18 13:19:31;;;;;;;;;;;26.10;32.50;;;;;;5073626;28;19964;-60
2023/10/18 13:21:59;;;;;;;;;;;26.10;32.50;;;;;;5077724;28;19930;-63
2023/10/18 13:24:29;;;;;;;;;;;26.00;32.70;;;;;;5077248;28;19924;-61
2023/10/18 13:27:00;;;;;;;;;;;26.00;32.80;;;;;;5072722;28;19978;-62
2023/10/18 13:29:30;;;;;;;;;;;26.00;32.80;;;;;;5073813;28;20357;-62
2023/10/18 13:31:58;;;;;;;;;;;25.90;32.70;;;;;;5078668;28;19939;-62
2023/10/18 13:37:14;;;;;;;;;;;25.90;32.80;;;;;;5071583;28;19968;-63
2023/10/18 13:39:48;;;;;;;;;;;25.90;32.80;;;;;;5075400;28;19928;-62
2023/10/18 13:42:15;;;;;;;;;;;25.80;32.60;;;;;;5072312;28;20441;-62
2023/10/18 13:44:42;;;;;;;;;;;25.80;32.60;;;;;;5078871;28;19929;-62
2023/10/18 13:47:11;;;;;;;;;;;25.80;32.60;;;;;;5076525;28;20368;-62
2023/10/18 13:49:40;;;;;;;;;;;25.80;32.80;;;;;;5073967;28;19967;-62
2023/10/18 13:52:07;;;;;;;;;;;25.70;32.70;;;;;;5077789;28;19932;-61
2023/10/18 13:54:35;;;;;;;;;;;25.70;32.70;;;;;;5077755;28;19928;-62
2023/10/18 13:57:05;;;;;;;;;;;25.70;32.60;;;;;;5076896;28;19999;-61
2023/10/18 13:59:34;;;;;;;;;;;25.70;32.50;;;;;;5078396;28;20031;-61
2023/10/18 14:02:02;;;;;;;;;;;25.70;32.60;;;;;;5074351;28;19928;-63
2023/10/18 14:04:32;;;;;;;;;;;25.70;32.80;;;;;;5076127;28;19933;-62
2023/10/18 14:07:00;;;;;;;;;;;25.70;32.80;;;;;;5073554;28;20402;-65
2023/10/18 14:09:33;;;;;;;;;;;25.70;32.90;;;;;;5078366;28;19924;-63
2023/10/18 14:12:01;;;;;;;;;;;25.70;33.00;;;;;;5074579;28;20011;-63
2023/10/18 14:14:31;;;;;;;;;;;25.70;33.00;;;;;;5074452;28;20011;-65
2023/10/18 14:16:59;;;;;;;;;;;25.70;33.10;;;;;;5078027;28;19956;-60
2023/10/18 14:19:29;;;;;;;;;;;25.70;33.60;;;;;;5074711;28;19924;-63
2023/10/18 14:21:57;;;;;;;;;;;25.70;33.60;;;;;;5079889;28;19940;-61
2023/10/18 14:24:28;;;;;;;;;;;25.70;33.80;;;;;;5072946;28;20393;-62
2023/10/18 14:26:59;;;;;;;;;;;25.70;33.70;;;;;;5081595;28;20253;-61
2023/10/18 14:29:26;;;;;;;;;;;25.70;33.80;;;;;;5074379;28;20060;-60
2023/10/18 14:31:53;;;;;;;;;;;25.70;33.80;;;;;;5074170;28;20352;-61
2023/10/18 14:34:22;;;;;;;;;;;25.60;33.70;;;;;;5089662;28;20017;-60
2023/10/18 14:36:50;;;;;;;;;;;25.60;33.80;;;;;;5075833;28;20388;-60
2023/10/18 14:39:22;;;;;;;;;;;25.60;33.70;;;;;;5078515;28;19931;-61
2023/10/18 14:42:06;;;;;;;;;;;25.50;33.50;;;;;;5072617;28;19948;-61
2023/10/18 14:44:34;;;;;;;;;;;25.50;33.50;;;;;;5078195;28;19969;-60
2023/10/18 14:47:02;;;;;;;;;;;25.50;33.60;;;;;;5092627;28;19924;-61
2023/10/18 14:49:31;;;;;;;;;;;25.40;33.90;;;;;;5085359;28;19924;-61
2023/10/18 14:51:59;;;;;;;;;;;25.40;34.10;;;;;;5080977;28;19928;-61
2023/10/18 14:54:26;;;;;;;;;;;25.40;34.30;;;;;;5083373;28;19935;-60
2023/10/18 14:56:53;;;;;;;;;;;25.30;34.30;;;;;;5092426;28;20026;-61
2023/10/18 14:59:20;;;;;;;;;;;25.30;34.50;;;;;;5092909;28;19931;-60
2023/10/18 15:01:47;;;;;;;;;;;25.20;34.60;;;;;;5091316;28;19928;-60
2023/10/18 15:04:14;;;;;;;;;;;25.20;34.90;;;;;;5093208;28;19966;-60
2023/10/18 15:06:41;;;;;;;;;;;25.20;35.20;;;;;;5092902;28;19975;-60
2023/10/18 15:09:08;;;;;;;;;;;25.20;35.60;;;;;;5090901;28;19924;-61
2023/10/18 15:11:38;;;;;;;;;;;25.10;35.90;;;;;;5084574;28;20379;-60
2023/10/18 15:14:07;;;;;;;;;;;25.10;36.30;;;;;;5092652;28;19925;-61
2023/10/18 15:16:34;;;;;;;;;;;25.10;36.90;;;;;;5092031;28;19978;-60
2023/10/18 15:19:03;;;;;;;;;;;25.10;36.80;;;;;;5093061;28;20388;-60
2023/10/18 15:21:31;;;;;;;;;;;25.00;36.60;;;;;;5084043;28;20442;-60
2023/10/18 15:23:58;;;;;;;;;;;25.00;36.90;;;;;;5071406;28;20328;-60